Time;durP1;ratioP1;P1;durP2;ratioP2;P2;SDS_P1;SDS_P2;PMS_P1;PMS_P2;Temp;Humidity;BMP_temperature;BMP_pressure;BME280_temperature;BME280_humidity;BME280_pressure;Samples;Min_cycle;Max_cycle;Signal;HPM_P1;HPM_P2
2022/11/11 00:04:36;;;;;;;24.73;10.73;;;;;;;9.80;72.93;101815.84;10385684;28;20125;-66
2022/11/11 00:09:37;;;;;;;20.80;9.43;;;;;;;9.75;72.95;101804.66;10386067;28;20042;-66
2022/11/11 00:14:39;;;;;;;26.65;10.15;;;;;;;9.64;73.13;101811.81;10381956;28;20590;-66
2022/11/11 00:25:06;;;;;;;18.48;8.38;;;;;;;9.57;72.84;101833.94;10389073;28;20114;-65
2022/11/11 00:30:08;;;;;;;25.80;9.13;;;;;;;9.50;72.99;101837.16;10371074;28;20064;-66
2022/11/11 00:40:30;;;;;;;30.92;10.95;;;;;;;9.35;73.17;101841.16;10385882;28;20041;-66
2022/11/11 00:45:32;;;;;;;22.25;9.63;;;;;;;9.29;73.09;101855.09;10387235;28;20124;-66
2022/11/11 00:55:54;;;;;;;27.13;10.15;;;;;;;9.17;72.72;101848.94;10388382;28;20038;-66
2022/11/11 01:00:56;;;;;;;20.17;9.02;;;;;;;9.09;73.15;101854.97;10389163;28;20128;-66
2022/11/11 01:06:01;;;;;;;20.17;10.55;;;;;;;9.03;72.96;101849.25;10384190;28;20057;-66
2022/11/11 01:11:03;;;;;;;22.58;9.38;;;;;;;8.92;72.91;101828.69;10385313;28;20662;-66
2022/11/11 01:16:07;;;;;;;22.60;10.05;;;;;;;8.86;73.36;101834.56;10384991;28;20586;-66
2022/11/11 01:21:10;;;;;;;56.08;20.45;;;;;;;8.82;72.75;101833.13;10369715;28;20047;-66
2022/11/11 01:26:20;;;;;;;37.97;14.45;;;;;;;8.73;73.33;101816.00;10383202;28;20570;-66
2022/11/11 01:31:30;;;;;;;23.13;9.98;;;;;;;8.68;72.90;101818.19;10385208;28;20045;-66
2022/11/11 01:36:32;;;;;;;24.25;9.27;;;;;;;8.57;73.11;101831.63;10383247;28;20042;-66
2022/11/11 01:41:37;;;;;;;23.10;8.90;;;;;;;8.47;73.07;101845.78;10385034;28;20084;-66
2022/11/11 01:46:57;;;;;;;25.73;10.05;;;;;;;8.27;73.45;101842.03;10382433;28;20555;-66
2022/11/11 01:52:20;;;;;;;23.90;9.02;;;;;;;8.08;74.04;101834.63;10385490;28;20049;-66
2022/11/11 01:57:30;;;;;;;14.95;7.30;;;;;;;8.04;73.49;101851.91;10363882;28;20125;-66
2022/11/11 02:02:47;;;;;;;16.00;8.02;;;;;;;8.03;73.48;101842.16;10378452;28;20052;-66
2022/11/11 02:07:48;;;;;;;19.70;9.00;;;;;;;8.04;73.74;101830.47;10384245;28;20049;-66
2022/11/11 02:18:10;;;;;;;25.95;9.43;;;;;;;7.90;74.15;101842.28;10385504;28;20176;-66
2022/11/11 02:23:25;;;;;;;23.80;8.10;;;;;;;7.89;73.32;101834.38;10378084;28;20071;-66
2022/11/11 02:28:30;;;;;;;24.38;8.77;;;;;;;7.89;73.18;101831.69;10377755;28;20053;-66
2022/11/11 02:33:32;;;;;;;25.48;8.35;;;;;;;7.84;74.11;101857.97;10380417;28;20049;-66
2022/11/11 02:38:33;;;;;;;31.38;10.13;;;;;;;7.81;73.89;101872.44;10394494;28;20124;-66
2022/11/11 02:43:35;;;;;;;28.67;9.90;;;;;;;7.82;73.45;101873.28;10387809;28;20046;-66
2022/11/11 02:48:37;;;;;;;28.83;9.95;;;;;;;7.86;73.61;101877.44;10393470;28;20132;-67
2022/11/11 02:53:38;;;;;;;25.55;10.30;;;;;;;7.93;74.08;101876.84;10390056;28;20113;-66
2022/11/11 02:58:40;;;;;;;23.50;8.60;;;;;;;7.74;74.10;101889.94;10390605;28;20049;-66
2022/11/11 03:03:41;;;;;;;24.75;7.95;;;;;;;7.68;74.57;101894.00;10390831;28;20574;-66
2022/11/11 03:08:43;;;;;;;35.72;10.73;;;;;;;7.79;73.70;101893.13;10393025;28;20037;-65
2022/11/11 03:13:45;;;;;;;40.65;10.13;;;;;;;7.75;73.80;101897.88;10387341;28;20049;-66
2022/11/11 03:18:46;;;;;;;47.80;10.90;;;;;;;7.83;74.02;101891.94;10390252;28;20081;-66
2022/11/11 03:23:48;;;;;;;46.63;11.63;;;;;;;7.84;73.68;101888.28;10385780;28;20056;-66
2022/11/11 03:28:49;;;;;;;80.35;13.57;;;;;;;7.76;73.95;101888.03;10389391;28;20149;-66
2022/11/11 03:33:51;;;;;;;71.90;12.10;;;;;;;7.91;74.08;101896.69;10388126;28;20049;-66
2022/11/11 03:38:52;;;;;;;45.40;12.43;;;;;;;8.03;74.18;101890.34;10388496;28;20038;-65
2022/11/11 03:43:54;;;;;;;36.88;11.73;;;;;;;8.17;74.34;101901.81;10387821;28;20136;-66
2022/11/11 03:48:55;;;;;;;33.60;11.10;;;;;;;8.22;73.93;101895.13;10387583;28;20136;-66
2022/11/11 03:53:57;;;;;;;38.10;11.73;;;;;;;8.27;74.21;101902.78;10384501;28;20049;-66
2022/11/11 03:58:58;;;;;;;37.83;13.30;;;;;;;8.31;74.08;101907.78;10387486;28;20125;-66
2022/11/11 04:30:42;;;;;;;48.63;13.02;;;;;;;8.33;74.18;101908.50;10386345;28;20119;-66
2022/11/11 04:35:48;;;;;;;61.50;14.43;;;;;;;8.46;74.75;101911.06;10388421;28;20078;-67
2022/11/11 04:41:02;;;;;;;65.53;13.48;;;;;;;8.46;74.22;101899.50;10389021;28;20092;-67
2022/11/11 04:46:04;;;;;;;71.47;14.82;;;;;;;8.38;74.73;101894.72;10386559;28;20041;-66
2022/11/11 04:51:05;;;;;;;121.97;16.73;;;;;;;8.42;75.04;101896.22;10386027;28;20076;-66
2022/11/11 05:12:07;;;;;;;48.85;13.13;;;;;;;8.31;74.83;101904.22;10371995;28;20061;-66
2022/11/11 05:22:37;;;;;;;73.40;13.68;;;;;;;8.23;75.73;101920.06;10380405;28;20559;-67
2022/11/11 05:27:39;;;;;;;68.20;12.90;;;;;;;8.29;75.36;101927.63;10389086;28;20136;-67
2022/11/11 05:32:41;;;;;;;42.33;12.60;;;;;;;8.33;74.92;101918.34;10387172;28;20073;-67
2022/11/11 05:38:18;;;;;;;103.10;13.57;;;;;;;8.26;75.47;101927.88;10372236;28;20456;-67
2022/11/11 05:43:05;;;;;;;114.68;13.10;;;;;;;8.09;75.26;101931.88;10385272;28;20124;-67
2022/11/11 05:48:06;;;;;;;99.75;14.57;;;;;;;8.03;75.36;101938.56;10388718;28;20045;-67
2022/11/11 05:53:07;;;;;;;106.22;14.05;;;;;;;8.02;75.49;101942.22;10388749;28;20705;-67
2022/11/11 05:58:09;;;;;;;106.15;14.75;;;;;;;8.01;75.39;101951.22;10388947;28;20133;-66
2022/11/11 06:03:10;;;;;;;117.90;16.00;;;;;;;8.11;75.42;101960.22;10385458;28;20324;-67
2022/11/11 06:08:12;;;;;;;139.93;15.02;;;;;;;8.08;75.26;101963.16;10384151;28;20165;-66
2022/11/11 06:13:14;;;;;;;126.43;16.35;;;;;;;8.01;75.31;101972.63;10384923;28;20128;-67
2022/11/11 06:18:15;;;;;;;233.77;18.30;;;;;;;7.89;75.76;101979.78;10386254;28;20462;-66
2022/11/11 06:23:17;;;;;;;200.40;16.40;;;;;;;8.00;75.40;101970.94;10378485;28;20347;-67
2022/11/11 06:28:18;;;;;;;114.43;11.73;;;;;;;7.94;75.54;101974.09;10379209;28;20399;-67
2022/11/11 06:33:20;;;;;;;116.88;14.18;;;;;;;7.92;74.75;101984.94;10387841;28;20095;-67
2022/11/11 06:38:22;;;;;;;104.05;11.95;;;;;;;7.93;74.79;101980.41;10385928;28;20049;-67
2022/11/11 06:43:24;;;;;;;162.30;13.55;;;;;;;8.03;75.05;101973.38;10385045;28;20038;-68
2022/11/11 06:48:30;;;;;;;126.85;12.50;;;;;;;8.07;75.06;101982.03;10386787;28;20050;-67
2022/11/11 06:53:32;;;;;;;117.75;12.98;;;;;;;8.16;74.95;101986.66;10362011;28;20160;-65
2022/11/11 06:58:34;;;;;;;52.75;12.05;;;;;;;8.23;74.85;101997.75;10390401;28;20488;-67
2022/11/11 07:03:36;;;;;;;99.47;13.32;;;;;;;8.24;75.16;101999.47;10370378;28;20124;-64
2022/11/11 07:08:37;;;;;;;122.15;12.27;;;;;;;8.10;75.39;102003.22;10382678;28;20120;-66
2022/11/11 07:13:38;;;;;;;150.40;14.48;;;;;;;8.02;75.50;102005.66;10384254;28;20049;-67
2022/11/11 07:18:40;;;;;;;152.82;13.77;;;;;;;7.91;75.86;102009.97;10379730;28;20142;-66
2022/11/11 07:23:41;;;;;;;249.68;18.20;;;;;;;7.81;75.87;102024.19;10369631;28;20225;-67
2022/11/11 07:28:42;;;;;;;59.75;11.65;;;;;;;8.02;75.43;102019.88;10398072;28;20042;-66
2022/11/11 07:33:44;;;;;;;178.35;14.05;;;;;;;8.11;75.90;102026.34;10393397;28;20083;-67
2022/11/11 07:38:45;;;;;;;127.05;13.63;;;;;;;8.15;75.84;102027.81;10392032;28;20162;-65
2022/11/11 07:43:47;;;;;;;93.45;12.98;;;;;;;8.34;75.77;102021.88;10404668;28;20055;-67
2022/11/11 07:48:48;;;;;;;65.75;13.05;;;;;;;8.48;75.19;102029.72;10389826;28;20084;-66
2022/11/11 07:53:49;;;;;;;81.80;13.40;;;;;;;8.64;75.72;102040.06;10388825;28;20045;-64
2022/11/11 07:58:51;;;;;;;51.20;12.55;;;;;;;8.86;75.27;102043.72;10386345;28;20137;-60
2022/11/11 08:03:52;;;;;;;118.25;13.95;;;;;;;9.05;75.65;102046.66;10384250;28;20041;-62
2022/11/11 08:08:54;;;;;;;107.28;12.82;;;;;;;9.14;75.61;102045.03;10389488;28;20051;-62
2022/11/11 08:13:55;;;;;;;49.67;12.27;;;;;;;9.27;75.55;102053.78;10386014;28;20152;-61
2022/11/11 08:18:57;;;;;;;57.80;13.27;;;;;;;9.49;76.21;102055.56;10382392;28;20140;-62
2022/11/11 08:23:58;;;;;;;67.30;12.60;;;;;;;9.69;75.95;102051.22;10387661;28;20542;-62
2022/11/11 08:29:20;;;;;;;66.05;13.30;;;;;;;9.60;76.12;102046.63;10384805;28;20057;-62
2022/11/11 08:34:21;;;;;;;80.15;14.45;;;;;;;9.58;76.37;102045.91;10386397;28;20132;-62
2022/11/11 08:39:22;;;;;;;69.45;15.30;;;;;;;9.52;76.34;102044.59;10390682;28;20050;-62
2022/11/11 08:44:24;;;;;;;62.28;14.00;;;;;;;9.62;76.11;102035.78;10390570;28;20120;-63
2022/11/11 08:49:25;;;;;;;74.38;16.52;;;;;;;9.57;76.37;102046.03;10381752;28;20128;-63
2022/11/11 08:54:26;;;;;;;65.85;18.52;;;;;;;9.61;76.52;102036.75;10387396;28;20085;-62
2022/11/11 08:59:28;;;;;;;63.50;18.08;;;;;;;9.73;76.63;102047.31;10389564;28;20099;-62
2022/11/11 09:04:29;;;;;;;65.82;17.88;;;;;;;10.08;76.22;102048.84;10387215;28;20474;-62
2022/11/11 09:09:45;;;;;;;52.95;16.55;;;;;;;10.13;76.43;102053.84;10385560;28;20141;-63
2022/11/11 09:14:48;;;;;;;50.70;16.90;;;;;;;10.12;76.54;102044.91;10382429;28;20132;-62
2022/11/11 09:19:50;;;;;;;59.45;15.10;;;;;;;10.18;76.40;102045.38;10386873;28;20046;-62
2022/11/11 09:24:51;;;;;;;58.03;17.85;;;;;;;10.23;76.33;102048.50;10383336;28;20057;-62
2022/11/11 09:29:52;;;;;;;49.13;18.35;;;;;;;10.44;75.81;102068.19;10383651;28;20125;-61
2022/11/11 09:34:54;;;;;;;48.05;18.55;;;;;;;10.29;75.99;102061.44;10387528;28;20526;-62
2022/11/11 09:39:55;;;;;;;57.50;18.23;;;;;;;10.36;75.83;102062.63;10381735;28;20057;-61
2022/11/11 09:45:09;;;;;;;53.40;17.52;;;;;;;10.11;76.33;102058.47;10388133;28;20548;-63
2022/11/11 09:50:14;;;;;;;46.40;17.55;;;;;;;10.26;76.04;102053.63;10385920;28;20084;-62
2022/11/11 09:55:38;;;;;;;50.25;17.45;;;;;;;10.21;76.04;102055.84;10386486;28;20085;-62
2022/11/11 10:00:44;;;;;;;49.60;18.27;;;;;;;10.29;75.69;102058.75;10385679;28;20041;-62
2022/11/11 10:05:56;;;;;;;47.72;17.98;;;;;;;10.24;75.84;102056.44;10386051;28;20115;-62
2022/11/11 10:10:59;;;;;;;46.35;17.27;;;;;;;10.31;75.98;102048.75;10380871;28;20068;-62
2022/11/11 10:16:09;;;;;;;47.97;19.45;;;;;;;10.41;75.48;102052.34;10381760;28;20061;-61
2022/11/11 10:21:19;;;;;;;44.50;18.65;;;;;;;10.62;75.34;102046.06;10382666;28;20124;-62
2022/11/11 10:26:39;;;;;;;43.35;17.50;;;;;;;10.61;75.47;102045.22;10383080;28;20136;-67
2022/11/11 10:31:42;;;;;;;45.00;17.98;;;;;;;10.69;75.61;102044.56;10386339;28;20140;-63
2022/11/11 10:36:48;;;;;;;41.42;17.48;;;;;;;10.84;75.54;102047.72;10391531;28;20059;-66
2022/11/11 10:41:51;;;;;;;45.65;18.40;;;;;;;10.77;75.46;102051.97;10388163;28;20042;-63
2022/11/11 10:47:05;;;;;;;47.75;19.60;;;;;;;10.75;75.92;102051.25;10387688;28;20467;-63
2022/11/11 10:52:15;;;;;;;48.13;19.55;;;;;;;10.83;75.56;102040.66;10385944;28;20128;-65
2022/11/11 10:57:25;;;;;;;45.42;19.80;;;;;;;10.81;75.21;102045.31;10388573;28;20432;-63
2022/11/11 11:02:34;;;;;;;43.13;19.70;;;;;;;10.96;75.15;102041.28;10380837;28;20132;-66
2022/11/11 11:07:43;;;;;;;44.30;19.08;;;;;;;10.89;74.92;102045.47;10371639;28;20408;-66
2022/11/11 11:12:59;;;;;;;44.95;18.52;;;;;;;10.93;75.13;102059.53;10389182;28;20062;-66
2022/11/11 11:18:07;;;;;;;40.70;17.75;;;;;;;10.97;74.59;102061.78;10399548;28;20141;-66
2022/11/11 11:23:08;;;;;;;50.38;19.80;;;;;;;10.85;75.07;102058.34;10390249;28;20060;-65
2022/11/11 11:28:13;;;;;;;47.88;21.38;;;;;;;11.01;74.65;102054.31;10392653;28;20049;-64
2022/11/11 11:33:14;;;;;;;40.00;18.38;;;;;;;11.19;74.18;102049.13;10388938;28;20678;-67
2022/11/11 11:38:17;;;;;;;42.25;19.02;;;;;;;11.09;74.27;102057.16;10387482;28;20149;-67
2022/11/11 11:43:34;;;;;;;40.25;19.58;;;;;;;11.06;74.30;102057.44;10389141;28;20077;-65
2022/11/11 11:49:25;;;;;;;43.45;20.25;;;;;;;11.29;73.84;102052.66;10389943;28;20136;-66
2022/11/11 11:54:45;;;;;;;49.80;20.92;;;;;;;11.43;73.87;102046.03;10390800;28;20076;-68
2022/11/11 12:00:01;;;;;;;44.20;20.75;;;;;;;11.58;73.43;102033.88;10389633;28;20129;-68
2022/11/11 12:05:44;;;;;;;42.40;21.35;;;;;;;11.58;73.89;102035.72;10394657;28;20049;-66
2022/11/11 12:11:05;;;;;;;38.80;19.73;;;;;;;11.62;73.79;102034.44;10392889;28;20790;-67
2022/11/11 12:16:14;;;;;;;41.08;19.45;;;;;;;11.57;73.54;102042.94;10389351;28;20045;-66
2022/11/11 12:21:21;;;;;;;40.85;20.00;;;;;;;11.51;73.47;102043.50;10395982;28;20122;-67
2022/11/11 12:26:38;;;;;;;41.05;19.85;;;;;;;11.46;73.68;102048.47;10390960;28;20092;-65
2022/11/11 12:31:51;;;;;;;40.88;21.02;;;;;;;11.68;73.00;102037.41;10392747;28;20124;-65
2022/11/11 12:36:59;;;;;;;39.35;20.30;;;;;;;11.65;73.51;102042.22;10392090;28;20077;-67
2022/11/11 12:42:10;;;;;;;44.20;21.40;;;;;;;11.42;73.54;102045.19;10385817;28;20136;-67
2022/11/11 12:47:26;;;;;;;49.63;22.13;;;;;;;11.49;73.53;102043.66;10383117;28;20747;-65
2022/11/11 12:52:52;;;;;;;42.33;22.27;;;;;;;11.57;73.02;102045.66;10394216;28;20140;-67
2022/11/11 12:58:09;;;;;;;43.95;23.67;;;;;;;11.88;72.27;102050.88;10387100;28;20129;-66
2022/11/11 13:03:26;;;;;;;43.65;21.80;;;;;;;12.08;72.44;102051.75;10388147;28;20046;-67
2022/11/11 13:08:59;;;;;;;41.53;22.92;;;;;;;12.03;72.06;102037.88;10391645;28;22144;-66
2022/11/11 13:14:30;;;;;;;48.38;24.08;;;;;;;11.83;72.32;102039.69;10379162;28;20065;-68
2022/11/11 13:19:53;;;;;;;44.35;23.90;;;;;;;12.07;72.36;102037.41;10372533;28;20512;-67
2022/11/11 13:24:56;;;;;;;44.30;23.20;;;;;;;12.20;72.17;102033.56;10360361;28;20527;-67
2022/11/11 13:30:20;;;;;;;48.10;23.65;;;;;;;11.97;72.71;102044.69;10391937;28;20050;-66
2022/11/11 13:35:36;;;;;;;50.28;25.23;;;;;;;11.83;72.37;102029.75;10389762;28;20050;-65
2022/11/11 13:40:42;;;;;;;50.60;25.73;;;;;;;11.96;72.37;102029.47;10389802;28;20073;-67
2022/11/11 13:45:51;;;;;;;47.38;23.95;;;;;;;12.10;72.08;102025.50;10388999;28;20176;-66
2022/11/11 13:50:53;;;;;;;49.75;24.63;;;;;;;11.88;72.71;102018.53;10378125;28;20145;-67
2022/11/11 13:56:01;;;;;;;50.42;25.88;;;;;;;11.72;72.62;102016.44;10388802;28;20128;-66
2022/11/11 14:01:06;;;;;;;52.40;25.15;;;;;;;11.60;73.17;102021.09;10392667;28;20473;-68
2022/11/11 14:06:13;;;;;;;49.60;25.23;;;;;;;11.43;73.03;102021.81;10386679;28;20053;-65
2022/11/11 14:11:34;;;;;;;59.88;26.73;;;;;;;11.37;73.18;102015.13;10387170;28;20096;-68
2022/11/11 14:16:36;;;;;;;56.60;27.88;;;;;;;11.55;73.09;102012.59;10377527;28;20049;-67
2022/11/11 14:21:53;;;;;;;52.25;26.17;;;;;;;11.69;72.46;102017.56;10386434;28;20061;-67
2022/11/11 14:27:02;;;;;;;55.55;25.65;;;;;;;11.83;72.21;102016.28;10390643;28;20103;-68
2022/11/11 14:32:13;;;;;;;58.72;25.98;;;;;;;11.64;72.79;102005.53;10389851;28;20078;-66
2022/11/11 14:37:27;;;;;;;59.00;26.95;;;;;;;11.48;72.99;102006.94;10396569;28;20139;-64
2022/11/11 14:42:34;;;;;;;60.03;28.38;;;;;;;11.48;72.60;102006.09;10375137;28;20066;-68
2022/11/11 14:47:39;;;;;;;66.53;29.15;;;;;;;11.54;72.88;102007.38;10391945;28;20430;-64
2022/11/11 14:52:41;;;;;;;62.50;27.08;;;;;;;11.46;72.73;102005.38;10376896;28;20073;-66
2022/11/11 14:57:47;;;;;;;69.65;27.85;;;;;;;11.36;72.60;102012.59;10401375;28;20122;-67
2022/11/11 15:02:59;;;;;;;68.20;27.48;;;;;;;11.26;73.27;101999.97;10390492;28;20042;-66
2022/11/11 15:08:29;;;;;;;70.78;28.42;;;;;;;11.27;73.37;101996.28;10387448;28;20530;-67
2022/11/11 15:13:45;;;;;;;65.18;26.20;;;;;;;10.92;73.84;101986.03;10374164;28;20063;-66
2022/11/11 15:19:17;;;;;;;61.72;26.58;;;;;;;11.07;73.59;101986.47;10388625;28;20072;-65
2022/11/11 15:24:37;;;;;;;53.80;23.13;;;;;;;11.00;73.78;101990.69;10389651;28;20140;-67
2022/11/11 15:29:53;;;;;;;57.72;23.17;;;;;;;11.08;73.33;101988.19;10387889;28;20037;-68
2022/11/11 15:35:25;;;;;;;68.32;24.48;;;;;;;11.02;73.23;101981.53;10387073;28;20053;-67
2022/11/11 15:40:53;;;;;;;81.55;27.08;;;;;;;11.06;73.59;101991.00;10391595;28;20387;-66
2022/11/11 15:45:59;;;;;;;80.10;26.13;;;;;;;11.00;73.82;101996.94;10390180;28;20061;-67
2022/11/11 15:51:32;;;;;;;134.63;30.25;;;;;;;10.85;73.90;101992.94;10390243;28;20073;-64
2022/11/11 15:56:33;;;;;;;89.10;28.13;;;;;;;10.87;73.96;101990.97;10389106;28;20067;-65
2022/11/11 16:01:35;;;;;;;98.47;30.02;;;;;;;10.91;74.21;101995.06;10388784;28;20113;-66
2022/11/11 16:06:37;;;;;;;90.57;30.45;;;;;;;10.88;73.96;101998.91;10387984;28;20050;-65
2022/11/11 16:11:40;;;;;;;82.68;28.02;;;;;;;10.83;74.36;102006.53;10386212;28;20077;-65
2022/11/11 16:16:42;;;;;;;103.38;29.25;;;;;;;10.68;74.92;102011.44;10384807;28;20068;-65
2022/11/11 16:21:50;;;;;;;190.00;34.20;;;;;;;10.65;75.00;102011.69;10385750;28;20049;-64
2022/11/11 16:26:52;;;;;;;96.05;26.92;;;;;;;10.84;74.50;102010.94;10388219;28;20072;-65
2022/11/11 16:31:53;;;;;;;113.03;31.85;;;;;;;11.00;74.24;102020.28;10390520;28;20042;-66
2022/11/11 16:37:10;;;;;;;111.57;32.05;;;;;;;10.94;74.15;102015.47;10383968;28;20362;-66
2022/11/11 16:42:28;;;;;;;108.15;30.88;;;;;;;10.89;74.47;102026.66;10376335;28;20096;-65
2022/11/11 16:47:32;;;;;;;163.45;34.50;;;;;;;10.83;74.93;102025.34;10391719;28;20510;-64
2022/11/11 16:52:53;;;;;;;131.15;33.38;;;;;;;10.75;75.04;102027.88;10388857;28;20069;-65
2022/11/11 16:57:58;;;;;;;139.95;34.78;;;;;;;10.70;75.07;102027.41;10389048;28;20479;-65
2022/11/11 17:03:07;;;;;;;169.52;36.45;;;;;;;10.75;75.04;102025.19;10390606;28;20583;-63
2022/11/11 17:08:29;;;;;;;158.35;33.08;;;;;;;10.51;75.76;102029.03;10385825;28;20137;-65
2022/11/11 17:13:32;;;;;;;223.15;31.58;;;;;;;10.31;76.26;102028.09;10382828;28;20061;-65
2022/11/11 17:18:39;;;;;;;418.00;40.88;;;;;;;10.32;75.92;102035.16;10358058;28;20050;-65
2022/11/11 17:23:41;;;;;;;314.52;39.85;;;;;;;10.45;75.55;102015.31;10384276;28;20038;-65
2022/11/11 17:28:42;;;;;;;596.55;47.75;;;;;;;10.30;75.89;102023.69;10385522;28;20473;-65
2022/11/11 17:33:43;;;;;;;273.92;39.97;;;;;;;10.34;75.92;102028.81;10384590;28;20140;-63
2022/11/11 17:38:45;;;;;;;429.67;47.25;;;;;;;10.31;75.68;102022.72;10388945;28;20122;-65
2022/11/11 17:43:46;;;;;;;314.75;37.92;;;;;;;10.18;76.65;102031.94;10381440;28;20107;-65
2022/11/11 17:48:52;;;;;;;372.50;31.70;;;;;;;10.10;76.20;102014.63;10383395;28;20137;-65
2022/11/11 17:53:53;;;;;;;147.65;27.05;;;;;;;10.09;76.31;102021.00;10380543;28;20125;-65
2022/11/11 17:58:54;;;;;;;253.90;28.05;;;;;;;10.20;76.02;102020.06;10390775;28;20599;-65
2022/11/11 18:03:56;;;;;;;230.77;26.98;;;;;;;10.23;75.76;102016.25;10384480;28;20614;-65
2022/11/11 18:08:58;;;;;;;197.23;27.27;;;;;;;10.36;75.45;102008.88;10380927;28;20369;-65
2022/11/11 18:13:59;;;;;;;318.25;27.83;;;;;;;10.20;75.66;102019.22;10383702;28;20144;-65
2022/11/11 18:19:01;;;;;;;306.73;27.58;;;;;;;10.14;75.88;102020.59;10381206;28;20144;-65
2022/11/11 18:24:04;;;;;;;266.35;28.23;;;;;;;10.01;76.29;102025.31;10384941;28;20088;-65
2022/11/11 18:29:09;;;;;;;234.73;25.45;;;;;;;10.05;76.19;102032.13;10384820;28;20076;-65
2022/11/11 18:34:11;;;;;;;222.85;25.10;;;;;;;10.13;75.81;102032.34;10383347;28;20045;-65
2022/11/11 18:39:12;;;;;;;123.85;23.48;;;;;;;10.03;76.14;102032.28;10383495;28;20073;-65
2022/11/11 18:44:13;;;;;;;212.52;24.05;;;;;;;10.09;75.82;102033.56;10384331;28;20056;-65
2022/11/11 18:49:15;;;;;;;331.20;28.05;;;;;;;9.99;76.29;102032.66;10383325;28;20528;-66
2022/11/11 18:54:16;;;;;;;305.25;27.83;;;;;;;10.08;75.75;102031.88;10391357;28;20546;-65
2022/11/11 18:59:19;;;;;;;294.55;29.63;;;;;;;10.01;76.04;102038.75;10380840;28;20042;-65
2022/11/11 19:04:20;;;;;;;182.38;25.20;;;;;;;10.04;75.95;102038.50;10380908;28;20056;-65
2022/11/11 19:09:23;;;;;;;252.50;28.60;;;;;;;10.12;75.96;102044.91;10387986;28;20132;-65
2022/11/11 19:14:26;;;;;;;231.48;25.77;;;;;;;10.13;75.99;102059.22;10387199;28;20125;-65
2022/11/11 19:19:27;;;;;;;293.60;27.45;;;;;;;10.11;76.19;102061.16;10391885;28;20073;-64
2022/11/11 19:24:28;;;;;;;169.25;24.45;;;;;;;10.07;76.12;102063.28;10378125;28;20448;-66
2022/11/11 19:29:34;;;;;;;312.58;30.83;;;;;;;10.11;76.16;102070.09;10396336;28;20045;-66
2022/11/11 19:34:35;;;;;;;98.00;21.08;;;;;;;10.09;76.17;102074.75;10392050;28;20132;-65
2022/11/11 19:39:38;;;;;;;231.70;24.75;;;;;;;10.15;76.11;102072.50;10393061;28;20133;-66
2022/11/11 19:44:39;;;;;;;245.68;26.73;;;;;;;10.02;76.30;102076.22;10397361;28;20080;-66
2022/11/11 19:49:40;;;;;;;142.93;23.23;;;;;;;10.07;76.23;102075.84;10399792;28;20168;-66
2022/11/11 19:54:42;;;;;;;239.38;26.50;;;;;;;10.04;76.41;102070.75;10393487;28;20041;-67
2022/11/11 19:59:43;;;;;;;130.10;22.98;;;;;;;9.99;76.46;102068.44;10396734;28;20152;-67
2022/11/11 20:04:44;;;;;;;118.93;22.60;;;;;;;10.15;76.25;102069.81;10398088;28;20132;-66
2022/11/11 20:09:46;;;;;;;392.75;33.05;;;;;;;10.05;76.22;102081.38;10390762;28;20536;-66
2022/11/11 20:14:47;;;;;;;270.65;27.88;;;;;;;10.04;76.18;102079.66;10387459;28;20572;-64
2022/11/11 20:19:48;;;;;;;105.78;21.42;;;;;;;10.02;76.20;102078.06;10390623;28;20065;-67
2022/11/11 20:24:50;;;;;;;158.80;24.85;;;;;;;10.16;76.05;102076.91;10384668;28;20119;-67
2022/11/11 20:29:51;;;;;;;191.40;24.08;;;;;;;10.24;76.21;102074.41;10367077;28;20045;-67
2022/11/11 20:34:54;;;;;;;362.02;29.58;;;;;;;10.24;75.96;102074.41;10387739;28;20058;-66
2022/11/11 20:39:55;;;;;;;298.10;27.90;;;;;;;10.14;76.27;102074.34;10387986;28;20077;-66
2022/11/11 20:44:56;;;;;;;299.30;27.88;;;;;;;9.98;76.37;102072.09;10382037;28;20151;-64
2022/11/11 20:49:58;;;;;;;223.45;23.08;;;;;;;10.00;75.83;102078.19;10390283;28;20494;-66
2022/11/11 20:54:59;;;;;;;284.48;27.27;;;;;;;9.98;76.13;102080.16;10386735;28;20053;-65
2022/11/11 21:00:01;;;;;;;201.93;23.45;;;;;;;9.98;76.12;102076.63;10394176;28;20121;-67
2022/11/11 21:05:03;;;;;;;138.85;21.52;;;;;;;10.04;76.18;102082.31;10388073;28;20959;-67
2022/11/11 21:10:04;;;;;;;92.53;18.83;;;;;;;10.12;76.37;102085.22;10388728;28;20052;-65
2022/11/11 21:15:07;;;;;;;98.60;19.55;;;;;;;10.18;76.11;102091.06;10388086;28;20793;-66
2022/11/11 21:20:08;;;;;;;100.32;19.08;;;;;;;10.20;75.98;102078.34;10390588;28;20065;-66
2022/11/11 21:25:10;;;;;;;384.98;27.35;;;;;;;10.24;75.93;102077.09;10382928;28;20500;-66
2022/11/11 21:30:12;;;;;;;224.38;22.27;;;;;;;10.13;75.89;102078.03;10390278;28;20069;-67
2022/11/11 21:35:13;;;;;;;158.35;20.55;;;;;;;10.06;76.20;102074.16;10388924;28;20540;-65
2022/11/11 21:40:15;;;;;;;193.18;19.83;;;;;;;10.06;75.98;102082.22;10362029;28;20442;-65
2022/11/11 21:45:16;;;;;;;272.77;21.55;;;;;;;10.05;75.92;102089.41;10368321;28;20045;-68
2022/11/11 21:50:17;;;;;;;142.43;17.45;;;;;;;10.04;76.04;102097.59;10375322;28;20065;-68
2022/11/11 21:55:19;;;;;;;108.75;16.95;;;;;;;9.98;75.87;102085.53;10388992;28;20046;-65
2022/11/11 22:00:20;;;;;;;265.35;18.27;;;;;;;9.83;75.97;102094.88;10383437;28;20542;-65
2022/11/11 22:05:22;;;;;;;362.17;24.48;;;;;;;9.60;76.03;102086.91;10388632;28;20132;-67
2022/11/11 22:10:23;;;;;;;162.70;19.98;;;;;;;9.68;76.16;102089.81;10383570;28;20380;-67
2022/11/11 22:15:24;;;;;;;122.38;16.52;;;;;;;9.79;75.79;102080.00;10390086;28;20037;-67
2022/11/11 22:20:26;;;;;;;142.50;15.60;;;;;;;9.84;75.61;102084.00;10386151;28;20050;-68
2022/11/11 22:25:27;;;;;;;226.60;17.13;;;;;;;9.57;75.86;102089.84;10388089;28;20065;-66
2022/11/11 22:30:28;;;;;;;205.05;16.90;;;;;;;9.35;76.25;102081.84;10383664;28;20068;-68
2022/11/11 22:35:30;;;;;;;256.73;20.10;;;;;;;9.36;76.04;102071.00;10387346;28;20132;-67
2022/11/11 22:40:31;;;;;;;237.90;19.58;;;;;;;9.43;75.99;102069.50;10387450;28;20076;-67
2022/11/11 22:45:33;;;;;;;60.15;14.57;;;;;;;9.47;76.03;102064.72;10378745;28;20123;-66
2022/11/11 22:50:34;;;;;;;151.32;16.13;;;;;;;9.39;76.08;102075.25;10388257;28;20045;-68
2022/11/11 22:55:36;;;;;;;230.20;21.40;;;;;;;9.19;76.92;102077.72;10393443;28;20061;-67
2022/11/11 23:00:37;;;;;;;143.07;18.38;;;;;;;9.26;76.39;102070.88;10389407;28;20049;-67
2022/11/11 23:05:38;;;;;;;169.15;16.67;;;;;;;9.18;76.61;102069.78;10390418;28;20590;-67
2022/11/11 23:10:40;;;;;;;108.35;14.10;;;;;;;9.08;76.80;102065.19;10389487;28;20048;-67
2022/11/11 23:15:50;;;;;;;135.60;17.08;;;;;;;9.29;76.96;102057.19;10391389;28;20056;-66
2022/11/11 23:21:04;;;;;;;130.88;17.80;;;;;;;9.45;76.29;102053.28;10391162;28;20065;-66
2022/11/11 23:26:08;;;;;;;202.07;17.55;;;;;;;9.32;76.38;102056.97;10383332;28;20049;-66
2022/11/11 23:31:15;;;;;;;124.13;13.95;;;;;;;9.08;76.73;102050.91;10389364;28;20116;-65
2022/11/11 23:36:19;;;;;;;72.97;12.45;;;;;;;9.02;76.89;102057.59;10386204;28;20133;-68
2022/11/11 23:41:20;;;;;;;122.03;14.63;;;;;;;9.07;76.94;102047.38;10387962;28;20053;-67
2022/11/11 23:46:22;;;;;;;123.97;14.48;;;;;;;8.97;77.35;102040.22;10374287;28;20096;-67
2022/11/11 23:51:24;;;;;;;110.68;14.55;;;;;;;8.91;77.53;102049.59;10391968;28;20076;-67
2022/11/11 23:56:25;;;;;;;125.20;13.82;;;;;;;8.89;77.09;102055.06;10393158;28;20455;-66
